메인 페이지
METAR-TAF:

METAR-TAF

공항 :

스타브로폴, 러시아

위도: 45-20N, 경도: 042-00E, 고도: 453m

현재 날씨관측

예보는 35분 전, 09:30시(UTC)에 발표되었습니다.
동남동6kt
온도 0°C
습도 100%
기압 1017 hPa
시정: 2000m
고도 300ft 상공 구름 보통
박무

METAR: URMT 120930Z 11003MPS 2000 R07/2000U BR SCT003 M00/M00 Q1017 R07/190060 NOSIG RMK QBB090 OBST OBSC QFE723

시각: 14:05 (10:05 UTC)

예보

예보는 2 시간 5분 전, 08:00시(UTC)에 발표되었습니다.
예보 대상 시간: 12일 09시부터 12일 18시까지 (UTC)
남남동6kt, 순간 최대 풍속 16kt
시정: 0800m
고도 200ft 상공 흐림
어는 안개
일시적
12일 09시부터 12일 12시까지 (UTC)
시정: 0100m
고도 100ft 상공 흐림
어는 안개
12일 1200시부터 (UTC)
동남동10kt, 순간 최대 풍속 21kt
시정: 3100m
고도 500ft 상공 구름 보통
고도 2000ft 상공 구름 많음
박무

TAF: URMT 120800Z 1209/1218 15003G08MPS 0800 FZFG OVC002 TEMPO 1209/1212 0100 FZFG OVC001 FM121200 12005G11MPS 3100 BR SCT005 BKN020

4,000개 이상의 공항 관측 자료 및 예보 (METAR 및 TAF 보고).

지도상에서 검색 가능한 기상관측소가 노란 점과 빨간 점으로 표시되어 있습니다.

기상관측소 명을 보려면 표시 위로 마우스를 이동하세요.

날씨 관측과 예보를 보려면 클릭하세요.

지도 변경 : 확대하려면 엑스 표시가 있는 녹색 버튼, 축소하려면 빼기 표시가 있는 녹색 버튼, 다음 페이지의 지도를 보려면 녹색 화살표를 클릭하세요.


METAR-TAF: